Terminal Aerodrome Forecast
Issued by NWS

Home | Current Version | Previous Version | Text Only | Print | Product List | Glossary On
Versions: 1 2 3 4 5 6 7 8 9 10 11 12 13 14 15 16 17 18 19 20 21 22 23 24 25
000
FTUS43 KICT 172337
TAFHUT
TAF
KHUT 172337Z 1800/1824 11007KT P6SM VCSH BKN035 OVC045
     FM180100 09007KT 4SM -SN SCT007 BKN015
     FM180600 12008KT 2SM -SN SCT004 OVC009
     FM181200 10008KT 1SM -FZDZSN BR OVC009
     FM181500 03007KT 4SM BR SCT009 BKN015=

USA.gov is the U.S. government's official web portal to all federal, state and local government web resources and services.